Portada
METAR-TAF:

METAR-TAF

Aeropuertos :

Aeropuerto de Oujda Angads

Oujda, Marruecos

latitud: 34-47N, longitud: 001-56W, altitud: 468 m

Observación

El informe se hizo hace 37 minutos, a las 02:00 UTC
Viento 8 kt del sur
Temperatura 8°C
Humedad 61%
Presión 1019 hPa
Visibilidad 10 km o más
Escasas nubes a una altura de 3000 ft
Nubes dispersas a una altura de 10000 ft

METAR: GMFO 240200Z 17008KT 9999 FEW030 SCT100 08/01 Q1019 NOSIG

Hora: 03:37 (02:37 UTC)

Pronóstico

El informe se hizo hace 3 horas y 37 minutos, a las 23:00 UTC
Pronóstico válido del 24 a las 00 UTC al 25 a las 06 UTC
Viento 6 kt del sur
Visibilidad 10 km o más
Escasas nubes a una altura de 3000 ft
Nubes dispersas a una altura de 10000 ft
Evolucionando progresivamente
del 24 a las 14 UTC al 24 a las 18 UTC
Viento 14 kt del noroeste
Nubes dispersas a una altura de 3300 ft

TAF: GMFO 232300Z 2400/2506 18006KT 9999 FEW030 SCT100 BECMG 2414/2418 32014KT SCT033

Observaciones y pronósticos meteorológicos de más de 4000 aeropuertos (mensajes METAR y TAF).

Los puntos amarillos y rojos representan las estaciones disponibles.

Ponga el ratón en el punto deseado para ver el nombre de la estación.

Haga clic para ver las observaciones y los pronósticos meteorológicos.

Para cambiar el mapa : haga clic en los botones verdes con una cruz de color negro para hacer un zoom, en el botón verde con un guión para alejar o en las flechas verdes para mapas adyacentes.


METAR-TAF: